If you wish to contribute or participate in the discussions about articles you are invited to join SKYbrary as a registered user

 Actions

Tafaraoui Airport

From SKYbrary Wiki

DAOL
Airport
ICAO: DAOL – IATA: TAF
Summary
Name Tafaraoui Airport
Region Africa
Territory Algeria DZ.gif
Location , Oran
Serving Oran
Elevation 111.862 m
367 ft
367 ft111.862 m
Type medium airport
Coordinates 35° 32' 32.80" N, 0° 31' 56.20" W
Runways
Designator Length Width Surface ROPS
8/26 2754 m9,035.433 ft
43 m141.076 ft
ASP /


METAR
Observation DAOL 150700Z 24008KT 9999 FEW023TCU SCT026 19/14 Q1021
Station Oran/Tafaraoui
Date/Time 15 October 2019 07:00:00
Wind direction 240°
Wind speed 08 kts
Lowest cloud amount few clouds
Temperature 19°C
Dew point 14°C
Humidity 72%
QNH 1021 hPa
Weather condition n/a